createdAt,value
2018-10-17T00:00:39.149Z,9.70
2018-10-17T00:03:06.072Z,9.70
2018-10-17T00:05:32.804Z,9.70
2018-10-17T00:07:59.711Z,9.70
2018-10-17T00:10:26.471Z,9.60
2018-10-17T00:12:53.148Z,9.60
2018-10-17T00:15:20.866Z,9.60
2018-10-17T00:17:47.612Z,9.50
2018-10-17T00:20:14.332Z,9.50
2018-10-17T00:22:41.133Z,9.50
2018-10-17T00:25:07.940Z,9.50
2018-10-17T00:27:34.722Z,9.50
2018-10-17T00:30:01.455Z,9.50
2018-10-17T00:32:28.903Z,9.50
2018-10-17T00:34:55.705Z,9.50
2018-10-17T00:37:22.429Z,9.50
2018-10-17T00:39:49.161Z,9.50
2018-10-17T00:42:15.905Z,9.50
2018-10-17T00:44:42.645Z,9.50
2018-10-17T00:47:09.503Z,9.50
2018-10-17T00:49:36.284Z,9.50
2018-10-17T00:52:03.338Z,9.50
2018-10-17T00:54:30.960Z,9.60
2018-10-17T00:56:57.723Z,9.60
2018-10-17T00:59:24.445Z,9.60
2018-10-17T01:01:51.185Z,9.60
2018-10-17T01:04:18.040Z,9.60
2018-10-17T01:06:45.525Z,9.70
2018-10-17T01:09:13.382Z,9.70
2018-10-17T01:11:40.366Z,9.70
2018-10-17T01:14:07.152Z,9.70
2018-10-17T01:16:33.889Z,9.70
2018-10-17T01:19:00.851Z,9.80
2018-10-17T01:21:27.532Z,9.70
2018-10-17T01:23:54.215Z,9.70
2018-10-17T01:26:21.820Z,9.80
2018-10-17T01:28:49.353Z,9.80
2018-10-17T01:31:16.158Z,9.70
2018-10-17T01:33:43.041Z,9.90
2018-10-17T01:36:09.773Z,9.90
2018-10-17T01:38:36.492Z,9.90
2018-10-17T01:41:03.347Z,9.90
2018-10-17T01:43:30.077Z,10.00
2018-10-17T01:45:56.930Z,10.00
2018-10-17T01:48:24.843Z,10.00
2018-10-17T01:50:53.284Z,10.00
2018-10-17T01:53:20.030Z,10.00
2018-10-17T01:55:47.121Z,10.00
2018-10-17T01:58:14.551Z,10.00
2018-10-17T02:00:42.150Z,10.00
2018-10-17T02:03:08.879Z,9.90
2018-10-17T02:05:36.963Z,10.00
2018-10-17T02:08:03.696Z,9.90
2018-10-17T02:10:31.173Z,9.90
2018-10-17T02:12:57.931Z,9.90
2018-10-17T02:15:24.681Z,9.90
2018-10-17T02:17:51.467Z,10.00
2018-10-17T02:20:18.152Z,10.00
2018-10-17T02:22:44.918Z,9.90
2018-10-17T02:25:12.444Z,10.00
2018-10-17T02:27:39.251Z,10.00
2018-10-17T02:30:06.766Z,10.00
2018-10-17T02:32:33.456Z,10.00
2018-10-17T02:35:00.275Z,10.10
2018-10-17T02:37:27.015Z,10.00
2018-10-17T02:39:53.761Z,10.10
2018-10-17T02:42:20.649Z,10.20
2018-10-17T02:44:47.336Z,10.10
2018-10-17T02:47:14.154Z,10.10
2018-10-17T02:49:40.933Z,10.10
2018-10-17T02:52:07.661Z,10.10
2018-10-17T02:54:35.105Z,10.20
2018-10-17T02:57:01.994Z,10.20
2018-10-17T02:59:28.707Z,10.10
2018-10-17T03:01:56.145Z,10.20
2018-10-17T03:04:22.879Z,10.20
2018-10-17T03:06:49.591Z,10.20
2018-10-17T03:09:16.445Z,10.20
2018-10-17T03:11:43.156Z,10.20
2018-10-17T03:14:09.880Z,10.20
2018-10-17T03:16:36.723Z,10.30
2018-10-17T03:19:04.277Z,10.30
2018-10-17T03:21:30.969Z,10.30
2018-10-17T03:23:57.806Z,10.50
2018-10-17T03:26:24.512Z,10.30
2018-10-17T03:28:51.425Z,10.30
2018-10-17T03:31:18.917Z,10.40
2018-10-17T03:33:45.625Z,10.40
2018-10-17T03:36:12.337Z,10.40
2018-10-17T03:38:39.096Z,10.40
2018-10-17T03:41:05.790Z,10.40
2018-10-17T03:43:32.634Z,10.40
2018-10-17T03:45:59.338Z,10.40
2018-10-17T03:48:26.019Z,10.30
2018-10-17T03:50:52.799Z,10.30
2018-10-17T03:53:19.685Z,10.30
2018-10-17T03:55:47.101Z,10.30
2018-10-17T03:58:13.892Z,10.30
2018-10-17T04:00:40.588Z,10.20
2018-10-17T04:03:07.348Z,10.20
2018-10-17T04:05:34.045Z,10.20
2018-10-17T04:08:00.803Z,10.20
2018-10-17T04:10:28.568Z,10.20
2018-10-17T04:12:55.301Z,10.20
2018-10-17T04:15:21.996Z,10.20
2018-10-17T04:17:49.107Z,10.20
2018-10-17T04:20:16.628Z,10.10
2018-10-17T04:22:43.565Z,10.20
2018-10-17T04:25:10.296Z,10.10
2018-10-17T04:27:37.755Z,10.00
2018-10-17T04:30:04.596Z,10.00
2018-10-17T04:32:31.488Z,9.90
2018-10-17T04:34:58.245Z,9.80
2018-10-17T04:37:24.942Z,9.80
2018-10-17T04:39:51.817Z,9.60
2018-10-17T04:42:18.525Z,9.70
2018-10-17T04:44:45.345Z,9.60
2018-10-17T04:47:12.246Z,9.60
2018-10-17T04:49:38.979Z,9.50
2018-10-17T04:52:06.439Z,9.40
2018-10-17T04:54:33.155Z,9.50
2018-10-17T04:57:00.050Z,9.40
2018-10-17T04:59:26.725Z,9.40
2018-10-17T05:01:53.453Z,9.40
2018-10-17T05:04:20.355Z,9.50
2018-10-17T05:06:47.296Z,9.40
2018-10-17T05:09:14.214Z,9.40
2018-10-17T05:11:41.526Z,9.50
2018-10-17T05:14:08.575Z,9.50
2018-10-17T05:16:35.478Z,9.50
2018-10-17T05:19:02.253Z,9.50
2018-10-17T05:21:29.048Z,9.50
2018-10-17T05:23:55.909Z,9.60
2018-10-17T05:26:22.612Z,9.60
2018-10-17T05:28:49.320Z,9.60
2018-10-17T05:31:16.147Z,9.70
2018-10-17T05:33:42.801Z,9.70
2018-10-17T05:36:09.636Z,9.70
2018-10-17T05:38:37.371Z,9.80
2018-10-17T05:41:04.535Z,9.70
2018-10-17T05:43:31.422Z,9.80
2018-10-17T05:45:58.274Z,9.80
2018-10-17T05:48:25.401Z,9.80
2018-10-17T05:50:52.546Z,9.60
2018-10-17T05:53:19.709Z,9.60
2018-10-17T05:55:47.109Z,9.60
2018-10-17T05:58:14.364Z,9.70
2018-10-17T06:00:41.473Z,9.70
2018-10-17T06:03:08.576Z,9.80
2018-10-17T06:05:35.683Z,9.80
2018-10-17T06:08:02.863Z,9.80
2018-10-17T06:10:29.891Z,9.80
2018-10-17T06:12:57.137Z,9.90
2018-10-17T06:15:24.335Z,9.90
2018-10-17T06:17:51.353Z,10.00
2018-10-17T06:20:18.484Z,10.00
2018-10-17T06:22:45.601Z,10.00
2018-10-17T06:25:12.704Z,10.10
2018-10-17T06:27:40.793Z,10.20
2018-10-17T06:30:07.926Z,10.20
2018-10-17T06:32:35.084Z,10.20
2018-10-17T06:35:02.576Z,10.30
2018-10-17T06:37:30.395Z,10.30
2018-10-17T06:39:58.154Z,10.30
2018-10-17T06:42:25.456Z,10.30
2018-10-17T06:44:52.769Z,10.30
2018-10-17T06:47:20.501Z,10.50
2018-10-17T06:49:48.298Z,10.50
2018-10-17T06:52:15.418Z,10.40
2018-10-17T06:54:43.290Z,10.60
2018-10-17T06:57:11.158Z,10.60
2018-10-17T06:59:39.156Z,10.50
2018-10-17T07:02:06.458Z,10.50
2018-10-17T07:04:33.517Z,10.50
2018-10-17T07:07:00.578Z,10.60
2018-10-17T07:09:27.657Z,10.60
2018-10-17T07:11:54.714Z,10.70
2018-10-17T07:14:21.929Z,10.80
2018-10-17T07:16:49.800Z,11.00
2018-10-17T07:19:17.134Z,11.00
2018-10-17T07:21:44.205Z,11.10
2018-10-17T07:24:11.335Z,11.10
2018-10-17T07:26:38.454Z,11.10
2018-10-17T07:29:05.625Z,11.30
2018-10-17T07:31:32.719Z,11.20
2018-10-17T07:33:59.887Z,11.20
2018-10-17T07:36:27.007Z,11.10
2018-10-17T07:38:54.131Z,11.20
2018-10-17T07:41:22.133Z,11.30
2018-10-17T07:43:49.280Z,11.30
2018-10-17T07:46:16.406Z,11.30
2018-10-17T07:48:43.659Z,11.50
2018-10-17T07:51:10.663Z,11.50
2018-10-17T07:53:37.864Z,11.60
2018-10-17T07:56:05.009Z,11.60
2018-10-17T07:58:32.828Z,11.70
2018-10-17T08:00:59.889Z,11.60
2018-10-17T08:03:26.862Z,11.70
2018-10-17T08:05:54.127Z,11.80
2018-10-17T08:08:21.193Z,11.80
2018-10-17T08:10:48.309Z,11.90
2018-10-17T08:13:15.313Z,11.90
2018-10-17T08:15:42.641Z,12.00
2018-10-17T08:18:10.457Z,12.00
2018-10-17T08:20:37.638Z,11.90
2018-10-17T08:23:05.664Z,11.90
2018-10-17T08:25:35.567Z,11.80
2018-10-17T08:28:03.639Z,11.90
2018-10-17T08:30:30.894Z,11.90
2018-10-17T08:32:57.630Z,12.00
2018-10-17T08:35:24.497Z,12.00
2018-10-17T08:37:51.670Z,11.90
2018-10-17T08:40:18.097Z,11.90
2018-10-17T08:42:45.044Z,11.90
2018-10-17T08:45:11.851Z,11.90
2018-10-17T08:47:38.596Z,11.90
2018-10-17T08:50:05.426Z,11.90
2018-10-17T08:52:32.196Z,11.90
2018-10-17T08:54:58.892Z,12.00
2018-10-17T08:57:25.708Z,12.10
2018-10-17T08:59:52.550Z,12.20
2018-10-17T09:02:19.269Z,12.30
2018-10-17T09:04:46.055Z,12.40
2018-10-17T09:07:13.097Z,12.40
2018-10-17T09:09:39.819Z,12.40
2018-10-17T09:12:06.708Z,12.40
2018-10-17T09:14:33.372Z,12.40
2018-10-17T09:17:00.858Z,12.60
2018-10-17T09:19:27.788Z,12.60
2018-10-17T09:21:55.558Z,12.60
2018-10-17T09:24:36.982Z,12.50
2018-10-17T09:27:04.484Z,12.40
2018-10-17T09:29:32.204Z,12.40
2018-10-17T09:31:59.034Z,12.40
2018-10-17T09:34:25.717Z,12.60
2018-10-17T09:36:52.447Z,12.40
2018-10-17T09:39:19.972Z,12.40
2018-10-17T09:41:46.645Z,12.40
2018-10-17T09:44:13.512Z,12.40
2018-10-17T09:46:40.357Z,12.50
2018-10-17T09:49:07.089Z,12.50
2018-10-17T09:51:33.841Z,12.60
2018-10-17T09:54:00.691Z,12.60
2018-10-17T09:56:27.389Z,12.60
2018-10-17T09:58:54.879Z,12.70
2018-10-17T10:01:21.644Z,12.70
2018-10-17T10:03:48.618Z,12.70
2018-10-17T10:06:15.411Z,12.80
2018-10-17T10:08:42.792Z,12.80
2018-10-17T10:11:09.712Z,12.80
2018-10-17T10:13:36.312Z,12.70
2018-10-17T10:16:04.003Z,12.80
2018-10-17T10:18:30.952Z,12.80
2018-10-17T10:20:57.656Z,12.90
2018-10-17T10:23:24.584Z,12.90
2018-10-17T10:25:52.044Z,12.90
2018-10-17T10:28:18.909Z,12.90
2018-10-17T10:30:45.655Z,12.90
2018-10-17T10:33:13.074Z,12.80
2018-10-17T10:35:39.971Z,12.70
2018-10-17T10:38:06.775Z,12.80
2018-10-17T10:40:33.838Z,12.60
2018-10-17T10:43:01.500Z,12.60
2018-10-17T10:45:28.981Z,12.50
2018-10-17T10:47:55.719Z,12.50
2018-10-17T10:50:23.283Z,12.50
2018-10-17T10:52:50.067Z,12.50
2018-10-17T10:55:16.738Z,12.60
2018-10-17T10:57:44.229Z,12.60
2018-10-17T11:00:11.090Z,12.50
2018-10-17T11:02:37.949Z,12.70
2018-10-17T11:05:05.506Z,12.70
2018-10-17T11:07:33.090Z,12.70
2018-10-17T11:10:06.838Z,12.70
2018-10-17T11:12:33.521Z,12.70
2018-10-17T11:15:00.388Z,12.60
2018-10-17T11:17:27.189Z,12.60
2018-10-17T11:19:53.966Z,12.60
2018-10-17T11:22:21.377Z,12.60
2018-10-17T11:24:48.077Z,12.50
2018-10-17T11:27:15.625Z,12.70
2018-10-17T11:29:42.366Z,12.70
2018-10-17T11:32:10.085Z,12.70
2018-10-17T11:34:36.830Z,12.70
2018-10-17T11:37:03.720Z,12.70
2018-10-17T11:39:30.510Z,12.70
2018-10-17T11:41:57.197Z,12.70
2018-10-17T11:44:24.670Z,12.80
2018-10-17T11:46:51.443Z,12.80
2018-10-17T11:49:18.605Z,12.90
2018-10-17T11:54:16.958Z,13.10
2018-10-17T11:56:43.690Z,13.10
2018-10-17T11:59:11.257Z,13.20
2018-10-17T12:01:38.231Z,13.10
2018-10-17T12:04:05.351Z,13.20
2018-10-17T12:06:32.525Z,13.20
2018-10-17T12:08:59.228Z,13.20
2018-10-17T12:11:25.993Z,13.20
2018-10-17T12:13:53.481Z,13.40
2018-10-17T12:16:20.316Z,13.30
2018-10-17T12:18:47.050Z,13.40
2018-10-17T12:21:13.918Z,13.40
2018-10-17T12:23:40.531Z,13.40
2018-10-17T12:26:07.243Z,13.40
2018-10-17T12:28:34.056Z,13.50
2018-10-17T12:31:00.793Z,13.50
2018-10-17T12:33:27.494Z,13.60
2018-10-17T12:35:54.272Z,13.60
2018-10-17T12:38:21.033Z,13.70
2018-10-17T12:40:47.902Z,13.70
2018-10-17T12:43:14.606Z,13.70
2018-10-17T12:45:42.278Z,13.80
2018-10-17T12:48:09.045Z,13.80
2018-10-17T12:50:35.765Z,13.90
2018-10-17T12:53:03.583Z,13.90
2018-10-17T12:55:30.137Z,13.90
2018-10-17T12:57:57.626Z,14.00
2018-10-17T13:00:25.184Z,14.00
2018-10-17T13:02:52.656Z,14.20
2018-10-17T13:05:19.339Z,14.20
2018-10-17T13:07:46.209Z,14.20
2018-10-17T13:10:13.648Z,14.00
2018-10-17T13:12:40.499Z,13.90
2018-10-17T13:15:07.494Z,14.00
2018-10-17T13:17:34.984Z,13.80
2018-10-17T13:20:01.724Z,13.80
2018-10-17T13:22:28.480Z,13.80
2018-10-17T13:24:55.389Z,13.80
2018-10-17T13:27:22.098Z,13.90
2018-10-17T13:29:49.682Z,13.90
2018-10-17T13:32:16.425Z,13.90
2018-10-17T13:34:43.121Z,13.90
2018-10-17T13:37:10.670Z,14.00
2018-10-17T13:39:37.409Z,13.90
2018-10-17T13:42:04.394Z,13.90
2018-10-17T13:44:31.221Z,14.00
2018-10-17T13:46:58.708Z,14.00
2018-10-17T13:49:25.520Z,14.00
2018-10-17T13:54:25.809Z,14.00
2018-10-17T13:56:52.556Z,14.00
2018-10-17T13:59:19.386Z,13.90
2018-10-17T14:01:46.100Z,14.00
2018-10-17T14:04:12.873Z,14.00
2018-10-17T14:06:39.658Z,13.90
2018-10-17T14:09:07.233Z,13.90
2018-10-17T14:11:34.742Z,13.90
2018-10-17T14:14:01.685Z,13.90
2018-10-17T14:16:28.381Z,13.90
2018-10-17T14:18:55.395Z,13.90
2018-10-17T14:21:22.160Z,13.90
2018-10-17T14:23:48.968Z,13.80
2018-10-17T14:26:15.713Z,13.80
2018-10-17T14:28:42.443Z,13.90
2018-10-17T14:31:09.159Z,13.90
2018-10-17T14:33:36.080Z,13.80
2018-10-17T14:36:02.890Z,13.90
2018-10-17T14:38:29.664Z,13.80
2018-10-17T14:40:56.360Z,13.80
2018-10-17T14:43:23.090Z,13.60
2018-10-17T14:45:50.715Z,13.60
2018-10-17T14:48:17.533Z,13.50
2018-10-17T14:50:44.210Z,13.50
2018-10-17T14:53:26.201Z,13.50
2018-10-17T14:55:52.980Z,13.40
2018-10-17T14:58:19.616Z,13.40
2018-10-17T15:00:47.847Z,13.30
2018-10-17T15:03:14.632Z,13.30
2018-10-17T15:05:41.466Z,13.10
2018-10-17T15:08:08.204Z,13.10
2018-10-17T15:10:35.080Z,13.00
2018-10-17T15:13:01.831Z,13.00
2018-10-17T15:15:29.401Z,12.90
2018-10-17T15:17:56.190Z,12.90
2018-10-17T15:20:23.250Z,12.90
2018-10-17T15:22:49.958Z,12.80
2018-10-17T15:25:16.743Z,12.80
2018-10-17T15:27:44.317Z,12.70
2018-10-17T15:30:11.831Z,12.70
2018-10-17T15:32:39.212Z,12.70
2018-10-17T15:35:05.999Z,12.60
2018-10-17T15:37:32.670Z,12.60
2018-10-17T15:39:59.388Z,12.60
2018-10-17T15:42:26.265Z,12.50
2018-10-17T15:44:53.072Z,12.40
2018-10-17T15:47:19.759Z,12.40
2018-10-17T15:49:46.728Z,12.30
2018-10-17T15:52:13.472Z,12.30
2018-10-17T15:54:40.888Z,12.20
2018-10-17T15:57:07.647Z,12.20
2018-10-17T15:59:35.186Z,12.20
2018-10-17T16:02:02.714Z,12.10
2018-10-17T16:04:30.324Z,12.10
2018-10-17T16:06:57.123Z,12.00
2018-10-17T16:09:23.940Z,12.00
2018-10-17T16:11:50.703Z,12.00
2018-10-17T16:14:17.490Z,12.00
2018-10-17T16:16:44.146Z,11.90
2018-10-17T16:19:10.916Z,11.90
2018-10-17T16:21:37.612Z,11.90
2018-10-17T16:24:04.386Z,11.90
2018-10-17T16:26:31.505Z,11.80
2018-10-17T16:28:58.267Z,11.80
2018-10-17T16:31:25.296Z,11.70
2018-10-17T16:33:52.899Z,11.70
2018-10-17T16:36:19.756Z,11.70
2018-10-17T16:39:01.941Z,11.70
2018-10-17T16:41:29.404Z,11.70
2018-10-17T16:43:56.135Z,11.70
2018-10-17T16:46:22.988Z,11.60
2018-10-17T16:48:49.728Z,11.60
2018-10-17T16:51:16.510Z,11.60
2018-10-17T16:53:43.244Z,11.60
2018-10-17T16:56:10.078Z,11.50
2018-10-17T16:58:36.975Z,11.60
2018-10-17T17:01:03.766Z,11.50
2018-10-17T17:03:30.485Z,11.60
2018-10-17T17:05:57.296Z,11.50
2018-10-17T17:08:23.989Z,11.60
2018-10-17T17:10:50.843Z,11.60
2018-10-17T17:13:17.608Z,11.50
2018-10-17T17:15:44.984Z,11.60
2018-10-17T17:18:11.911Z,11.60
2018-10-17T17:20:39.978Z,11.60
2018-10-17T17:23:06.680Z,11.60
2018-10-17T17:25:34.148Z,11.70
2018-10-17T17:28:00.933Z,11.60
2018-10-17T17:30:27.640Z,11.60
2018-10-17T17:32:55.125Z,11.70
2018-10-17T17:37:48.422Z,11.60
2018-10-17T17:40:15.089Z,11.60
2018-10-17T17:42:41.740Z,11.60
2018-10-17T17:45:08.480Z,11.60
2018-10-17T17:47:35.932Z,11.60
2018-10-17T17:50:02.625Z,11.60
2018-10-17T17:52:29.342Z,11.50
2018-10-17T17:54:56.809Z,11.60
2018-10-17T17:57:24.276Z,11.60
2018-10-17T17:59:51.122Z,11.60
2018-10-17T18:02:19.400Z,11.50
2018-10-17T18:04:46.317Z,11.60
2018-10-17T18:07:13.092Z,11.60
2018-10-17T18:09:39.760Z,11.60
2018-10-17T18:12:06.418Z,11.60
2018-10-17T18:14:33.994Z,11.50
2018-10-17T18:17:01.474Z,11.50
2018-10-17T18:19:28.738Z,11.50
2018-10-17T18:21:55.591Z,11.60
2018-10-17T18:24:22.253Z,11.50
2018-10-17T18:26:49.059Z,11.50
2018-10-17T18:29:15.723Z,11.50
2018-10-17T18:31:42.586Z,11.50
2018-10-17T18:34:09.348Z,11.50
2018-10-17T18:36:35.995Z,11.40
2018-10-17T18:39:03.613Z,11.50
2018-10-17T18:41:31.224Z,11.50
2018-10-17T18:43:58.680Z,11.50
2018-10-17T18:46:26.107Z,11.50
2018-10-17T18:48:53.521Z,11.50
2018-10-17T18:51:20.349Z,11.50
2018-10-17T18:53:47.310Z,11.50
2018-10-17T18:56:14.011Z,11.50
2018-10-17T18:58:40.762Z,11.60
2018-10-17T19:01:08.328Z,11.60
2018-10-17T19:03:35.751Z,11.60
2018-10-17T19:06:02.633Z,11.60
2018-10-17T19:08:29.308Z,11.60
2018-10-17T19:10:56.119Z,11.70
2018-10-17T19:13:22.995Z,11.70
2018-10-17T19:15:49.754Z,11.70
2018-10-17T19:18:16.405Z,11.80
2018-10-17T19:20:43.124Z,11.70
2018-10-17T19:23:10.556Z,11.70
2018-10-17T19:25:37.225Z,11.70
2018-10-17T19:28:04.033Z,11.70
2018-10-17T19:30:31.946Z,11.70
2018-10-17T19:32:58.660Z,11.70
2018-10-17T19:35:25.513Z,11.70
2018-10-17T19:37:52.175Z,11.70
2018-10-17T19:40:20.687Z,11.70
2018-10-17T19:42:48.254Z,11.70
2018-10-17T19:45:15.163Z,11.70
2018-10-17T19:47:41.948Z,11.70
2018-10-17T19:50:09.377Z,11.70
2018-10-17T19:52:36.776Z,11.80
2018-10-17T19:55:03.500Z,11.70
2018-10-17T19:57:30.313Z,11.70
2018-10-17T19:59:57.542Z,11.70
2018-10-17T20:02:24.359Z,11.70
2018-10-17T20:04:51.073Z,11.80
2018-10-17T20:07:18.232Z,11.70
2018-10-17T20:09:45.618Z,11.70
2018-10-17T20:12:13.802Z,11.70
2018-10-17T20:14:41.055Z,11.60
2018-10-17T20:17:07.911Z,11.60
2018-10-17T20:19:35.316Z,11.70
2018-10-17T20:22:02.002Z,11.70
2018-10-17T20:24:29.520Z,11.80
2018-10-17T20:26:56.192Z,11.70
2018-10-17T20:29:22.846Z,11.70
2018-10-17T20:31:49.524Z,11.70
2018-10-17T20:34:16.204Z,11.70
2018-10-17T20:36:43.636Z,11.60
2018-10-17T20:39:10.526Z,11.60
2018-10-17T20:41:37.955Z,11.70
2018-10-17T20:44:04.831Z,11.70
2018-10-17T20:46:31.531Z,11.70
2018-10-17T20:48:58.197Z,11.70
2018-10-17T20:51:24.915Z,11.60
2018-10-17T20:53:51.546Z,11.60
2018-10-17T20:56:18.274Z,11.70
2018-10-17T20:58:45.160Z,11.60
2018-10-17T21:01:11.830Z,11.70
2018-10-17T21:03:39.392Z,11.70
2018-10-17T21:06:06.245Z,11.70
2018-10-17T21:08:33.694Z,11.60
2018-10-17T21:11:00.677Z,11.60
2018-10-17T21:13:27.491Z,11.70
2018-10-17T21:15:54.219Z,11.60
2018-10-17T21:18:21.063Z,11.70
2018-10-17T21:20:47.659Z,11.70
2018-10-17T21:23:15.056Z,11.60
2018-10-17T21:25:41.802Z,11.70
2018-10-17T21:28:08.745Z,11.70
2018-10-17T21:30:35.495Z,11.70
2018-10-17T21:33:02.223Z,11.70
2018-10-17T21:35:29.064Z,11.70
2018-10-17T21:37:56.033Z,11.70
2018-10-17T21:40:22.627Z,11.60
2018-10-17T21:42:50.424Z,11.70
2018-10-17T21:45:17.874Z,11.70
2018-10-17T21:47:44.716Z,11.70
2018-10-17T21:50:11.484Z,11.70
2018-10-17T21:52:38.295Z,11.60
2018-10-17T21:55:05.771Z,11.70
2018-10-17T21:57:32.709Z,11.70
2018-10-17T21:59:59.442Z,11.70
2018-10-17T22:02:26.281Z,11.70
2018-10-17T22:04:52.981Z,11.70
2018-10-17T22:07:19.764Z,11.80
2018-10-17T22:09:48.172Z,11.70
2018-10-17T22:12:14.959Z,11.70
2018-10-17T22:14:42.544Z,11.70
2018-10-17T22:17:09.465Z,11.70
2018-10-17T22:19:36.993Z,11.70
2018-10-17T22:22:03.997Z,11.70
2018-10-17T22:24:30.835Z,11.70
2018-10-17T22:26:57.984Z,11.70
2018-10-17T22:29:24.908Z,11.70
2018-10-17T22:31:52.441Z,11.70
2018-10-17T22:34:19.135Z,11.70
2018-10-17T22:36:45.969Z,11.70
2018-10-17T22:39:13.126Z,11.80
2018-10-17T22:41:39.797Z,11.80
2018-10-17T22:44:07.311Z,11.90
2018-10-17T22:46:35.090Z,11.80
2018-10-17T22:49:02.925Z,11.90
2018-10-17T22:51:30.412Z,11.80
2018-10-17T22:53:58.798Z,11.80
2018-10-17T22:56:25.656Z,11.90
2018-10-17T22:58:52.304Z,11.90
2018-10-17T23:01:19.042Z,11.90
2018-10-17T23:03:45.731Z,11.90
2018-10-17T23:06:12.424Z,11.90
2018-10-17T23:08:39.084Z,11.90
2018-10-17T23:11:05.753Z,11.90
2018-10-17T23:13:32.395Z,11.90
2018-10-17T23:15:59.070Z,11.90
2018-10-17T23:18:25.853Z,12.00
2018-10-17T23:20:53.290Z,12.00
2018-10-17T23:23:19.943Z,12.00
2018-10-17T23:25:46.711Z,12.00
2018-10-17T23:28:13.388Z,12.00
2018-10-17T23:30:40.047Z,12.00
2018-10-17T23:33:06.858Z,12.00
2018-10-17T23:35:33.502Z,12.00
2018-10-17T23:38:00.184Z,12.00
2018-10-17T23:40:27.631Z,11.90
2018-10-17T23:42:54.283Z,11.90
2018-10-17T23:45:21.673Z,11.90
2018-10-17T23:47:48.355Z,11.90
2018-10-17T23:50:15.134Z,11.90
2018-10-17T23:52:41.768Z,11.90
2018-10-17T23:55:08.473Z,11.90
2018-10-17T23:57:35.177Z,11.90
